sensor_id;sensor_type;location;lat;lon;timestamp;P1;durP1;ratioP1;P2;durP2;ratioP2
12535;SDS011;6334;48.696;2.114;2023-03-16T00:00:14;5.47;;;3.13;;
12535;SDS011;6334;48.696;2.114;2023-03-16T00:02:45;5.50;;;3.47;;
12535;SDS011;6334;48.696;2.114;2023-03-16T00:05:15;3.70;;;2.67;;
12535;SDS011;6334;48.696;2.114;2023-03-16T00:07:46;3.53;;;3.00;;
12535;SDS011;6334;48.696;2.114;2023-03-16T00:10:16;6.50;;;3.03;;
12535;SDS011;6334;48.696;2.114;2023-03-16T00:12:47;5.97;;;3.07;;
12535;SDS011;6334;48.696;2.114;2023-03-16T00:15:17;8.13;;;3.07;;
12535;SDS011;6334;48.696;2.114;2023-03-16T00:17:48;6.17;;;3.10;;
12535;SDS011;6334;48.696;2.114;2023-03-16T00:20:18;6.33;;;3.20;;
12535;SDS011;6334;48.696;2.114;2023-03-16T00:22:48;4.17;;;2.80;;
12535;SDS011;6334;48.696;2.114;2023-03-16T00:25:19;6.80;;;3.00;;
12535;SDS011;6334;48.696;2.114;2023-03-16T00:27:49;6.73;;;3.10;;
12535;SDS011;6334;48.696;2.114;2023-03-16T00:30:20;3.70;;;2.80;;
12535;SDS011;6334;48.696;2.114;2023-03-16T00:32:51;4.13;;;2.93;;
12535;SDS011;6334;48.696;2.114;2023-03-16T00:35:21;5.37;;;3.30;;
12535;SDS011;6334;48.696;2.114;2023-03-16T00:37:52;5.23;;;2.80;;
12535;SDS011;6334;48.696;2.114;2023-03-16T00:40:22;4.63;;;3.40;;
12535;SDS011;6334;48.696;2.114;2023-03-16T00:42:53;3.47;;;2.97;;
12535;SDS011;6334;48.696;2.114;2023-03-16T00:45:23;5.40;;;3.40;;
12535;SDS011;6334;48.696;2.114;2023-03-16T00:47:55;6.67;;;3.33;;
12535;SDS011;6334;48.696;2.114;2023-03-16T00:50:25;5.90;;;3.30;;
12535;SDS011;6334;48.696;2.114;2023-03-16T00:52:56;5.83;;;3.47;;
12535;SDS011;6334;48.696;2.114;2023-03-16T00:55:26;3.87;;;3.10;;
12535;SDS011;6334;48.696;2.114;2023-03-16T00:57:58;6.00;;;3.47;;
12535;SDS011;6334;48.696;2.114;2023-03-16T01:00:28;4.90;;;2.93;;
12535;SDS011;6334;48.696;2.114;2023-03-16T01:02:59;6.30;;;3.50;;
12535;SDS011;6334;48.696;2.114;2023-03-16T01:05:29;5.33;;;3.60;;
12535;SDS011;6334;48.696;2.114;2023-03-16T01:08:00;6.20;;;3.70;;
12535;SDS011;6334;48.696;2.114;2023-03-16T01:10:30;6.03;;;3.40;;
12535;SDS011;6334;48.696;2.114;2023-03-16T01:13:01;5.00;;;3.50;;
12535;SDS011;6334;48.696;2.114;2023-03-16T01:15:31;6.70;;;3.87;;
12535;SDS011;6334;48.696;2.114;2023-03-16T01:18:02;7.33;;;3.60;;
12535;SDS011;6334;48.696;2.114;2023-03-16T01:20:32;5.40;;;3.43;;
12535;SDS011;6334;48.696;2.114;2023-03-16T01:23:02;7.30;;;3.90;;
12535;SDS011;6334;48.696;2.114;2023-03-16T01:25:33;6.07;;;3.37;;
12535;SDS011;6334;48.696;2.114;2023-03-16T01:28:03;10.27;;;3.97;;
12535;SDS011;6334;48.696;2.114;2023-03-16T01:30:34;6.67;;;3.50;;
12535;SDS011;6334;48.696;2.114;2023-03-16T01:33:04;5.43;;;3.40;;
12535;SDS011;6334;48.696;2.114;2023-03-16T01:35:35;5.00;;;3.40;;
12535;SDS011;6334;48.696;2.114;2023-03-16T01:38:05;6.43;;;3.17;;
12535;SDS011;6334;48.696;2.114;2023-03-16T01:40:36;4.90;;;3.20;;
12535;SDS011;6334;48.696;2.114;2023-03-16T01:43:06;3.93;;;3.10;;
12535;SDS011;6334;48.696;2.114;2023-03-16T01:48:39;6.03;;;3.57;;
12535;SDS011;6334;48.696;2.114;2023-03-16T01:51:17;10.47;;;4.00;;
12535;SDS011;6334;48.696;2.114;2023-03-16T01:53:46;7.37;;;4.27;;
12535;SDS011;6334;48.696;2.114;2023-03-16T01:56:19;6.53;;;3.23;;
12535;SDS011;6334;48.696;2.114;2023-03-16T01:58:48;5.30;;;3.60;;
12535;SDS011;6334;48.696;2.114;2023-03-16T02:01:18;7.30;;;3.40;;
12535;SDS011;6334;48.696;2.114;2023-03-16T02:03:48;4.60;;;3.40;;
12535;SDS011;6334;48.696;2.114;2023-03-16T02:06:19;5.23;;;2.90;;
12535;SDS011;6334;48.696;2.114;2023-03-16T02:08:49;3.57;;;2.90;;
12535;SDS011;6334;48.696;2.114;2023-03-16T02:11:20;4.30;;;3.10;;
12535;SDS011;6334;48.696;2.114;2023-03-16T02:13:50;5.37;;;2.93;;
12535;SDS011;6334;48.696;2.114;2023-03-16T02:16:21;4.50;;;3.10;;
12535;SDS011;6334;48.696;2.114;2023-03-16T02:18:51;5.93;;;3.10;;
12535;SDS011;6334;48.696;2.114;2023-03-16T02:21:25;7.67;;;3.20;;
12535;SDS011;6334;48.696;2.114;2023-03-16T02:23:58;6.07;;;3.10;;
12535;SDS011;6334;48.696;2.114;2023-03-16T02:26:33;6.50;;;3.10;;
12535;SDS011;6334;48.696;2.114;2023-03-16T02:29:22;5.00;;;3.10;;
12535;SDS011;6334;48.696;2.114;2023-03-16T02:31:48;4.53;;;2.97;;
12535;SDS011;6334;48.696;2.114;2023-03-16T02:34:19;5.03;;;3.33;;
12535;SDS011;6334;48.696;2.114;2023-03-16T02:36:49;5.47;;;3.07;;
12535;SDS011;6334;48.696;2.114;2023-03-16T02:39:20;6.93;;;3.23;;
12535;SDS011;6334;48.696;2.114;2023-03-16T02:41:50;5.07;;;3.20;;
12535;SDS011;6334;48.696;2.114;2023-03-16T02:44:27;5.33;;;3.07;;
12535;SDS011;6334;48.696;2.114;2023-03-16T02:46:57;5.60;;;3.10;;
12535;SDS011;6334;48.696;2.114;2023-03-16T02:49:36;6.70;;;3.37;;
12535;SDS011;6334;48.696;2.114;2023-03-16T02:52:06;5.67;;;3.30;;
12535;SDS011;6334;48.696;2.114;2023-03-16T02:54:37;6.13;;;3.53;;
12535;SDS011;6334;48.696;2.114;2023-03-16T02:57:07;5.17;;;3.30;;
12535;SDS011;6334;48.696;2.114;2023-03-16T02:59:38;6.27;;;3.20;;
12535;SDS011;6334;48.696;2.114;2023-03-16T03:02:08;5.57;;;3.20;;
12535;SDS011;6334;48.696;2.114;2023-03-16T03:04:39;6.97;;;3.17;;
12535;SDS011;6334;48.696;2.114;2023-03-16T03:07:09;5.23;;;2.97;;
12535;SDS011;6334;48.696;2.114;2023-03-16T03:09:40;6.40;;;3.43;;
12535;SDS011;6334;48.696;2.114;2023-03-16T03:12:10;5.23;;;3.10;;
12535;SDS011;6334;48.696;2.114;2023-03-16T03:14:40;5.90;;;3.20;;
12535;SDS011;6334;48.696;2.114;2023-03-16T03:17:11;5.40;;;3.33;;
12535;SDS011;6334;48.696;2.114;2023-03-16T03:19:41;5.03;;;3.13;;
12535;SDS011;6334;48.696;2.114;2023-03-16T03:22:12;5.23;;;3.00;;
12535;SDS011;6334;48.696;2.114;2023-03-16T03:24:42;4.33;;;3.00;;
12535;SDS011;6334;48.696;2.114;2023-03-16T03:27:13;4.37;;;2.83;;
12535;SDS011;6334;48.696;2.114;2023-03-16T03:29:43;4.73;;;2.97;;
12535;SDS011;6334;48.696;2.114;2023-03-16T03:32:14;4.87;;;3.40;;
12535;SDS011;6334;48.696;2.114;2023-03-16T03:34:44;6.00;;;3.47;;
12535;SDS011;6334;48.696;2.114;2023-03-16T03:37:14;5.83;;;2.80;;
12535;SDS011;6334;48.696;2.114;2023-03-16T03:39:45;3.87;;;2.80;;
12535;SDS011;6334;48.696;2.114;2023-03-16T03:42:15;4.83;;;2.77;;
12535;SDS011;6334;48.696;2.114;2023-03-16T03:44:46;4.80;;;2.77;;
12535;SDS011;6334;48.696;2.114;2023-03-16T03:47:17;3.03;;;2.53;;
12535;SDS011;6334;48.696;2.114;2023-03-16T03:49:47;2.63;;;2.20;;
12535;SDS011;6334;48.696;2.114;2023-03-16T03:52:17;5.80;;;3.30;;
12535;SDS011;6334;48.696;2.114;2023-03-16T03:54:49;4.63;;;3.30;;
12535;SDS011;6334;48.696;2.114;2023-03-16T03:57:20;4.67;;;2.87;;
12535;SDS011;6334;48.696;2.114;2023-03-16T03:59:50;4.70;;;3.20;;
12535;SDS011;6334;48.696;2.114;2023-03-16T04:02:20;4.30;;;3.43;;
12535;SDS011;6334;48.696;2.114;2023-03-16T04:04:51;5.73;;;3.47;;
12535;SDS011;6334;48.696;2.114;2023-03-16T04:07:21;4.27;;;2.87;;
12535;SDS011;6334;48.696;2.114;2023-03-16T04:09:52;5.17;;;3.00;;
12535;SDS011;6334;48.696;2.114;2023-03-16T04:12:22;3.67;;;2.67;;
12535;SDS011;6334;48.696;2.114;2023-03-16T04:14:54;4.40;;;2.90;;
12535;SDS011;6334;48.696;2.114;2023-03-16T04:17:24;5.80;;;2.77;;
12535;SDS011;6334;48.696;2.114;2023-03-16T04:19:55;5.00;;;2.83;;
12535;SDS011;6334;48.696;2.114;2023-03-16T04:22:25;4.63;;;3.17;;
12535;SDS011;6334;48.696;2.114;2023-03-16T04:24:56;4.03;;;2.90;;
12535;SDS011;6334;48.696;2.114;2023-03-16T04:27:26;3.77;;;2.70;;
12535;SDS011;6334;48.696;2.114;2023-03-16T04:29:57;3.87;;;2.87;;
12535;SDS011;6334;48.696;2.114;2023-03-16T04:32:27;4.03;;;2.70;;
12535;SDS011;6334;48.696;2.114;2023-03-16T04:34:58;2.97;;;2.50;;
12535;SDS011;6334;48.696;2.114;2023-03-16T04:37:28;5.63;;;2.90;;
12535;SDS011;6334;48.696;2.114;2023-03-16T04:39:59;4.60;;;2.70;;
12535;SDS011;6334;48.696;2.114;2023-03-16T04:42:42;4.77;;;2.90;;
12535;SDS011;6334;48.696;2.114;2023-03-16T04:45:15;3.20;;;2.90;;
12535;SDS011;6334;48.696;2.114;2023-03-16T04:47:45;4.17;;;2.67;;
12535;SDS011;6334;48.696;2.114;2023-03-16T04:50:16;3.43;;;2.60;;
12535;SDS011;6334;48.696;2.114;2023-03-16T04:52:47;3.93;;;2.87;;
12535;SDS011;6334;48.696;2.114;2023-03-16T04:55:17;5.37;;;2.83;;
12535;SDS011;6334;48.696;2.114;2023-03-16T04:57:48;5.53;;;2.93;;
12535;SDS011;6334;48.696;2.114;2023-03-16T05:00:18;4.03;;;2.80;;
12535;SDS011;6334;48.696;2.114;2023-03-16T05:02:49;4.40;;;2.50;;
12535;SDS011;6334;48.696;2.114;2023-03-16T05:05:19;4.43;;;3.00;;
12535;SDS011;6334;48.696;2.114;2023-03-16T05:07:49;8.60;;;3.33;;
12535;SDS011;6334;48.696;2.114;2023-03-16T05:10:20;3.53;;;2.50;;
12535;SDS011;6334;48.696;2.114;2023-03-16T05:12:50;4.63;;;2.63;;
12535;SDS011;6334;48.696;2.114;2023-03-16T05:15:21;5.03;;;2.70;;
12535;SDS011;6334;48.696;2.114;2023-03-16T05:17:53;3.40;;;2.40;;
12535;SDS011;6334;48.696;2.114;2023-03-16T05:20:22;4.93;;;3.00;;
12535;SDS011;6334;48.696;2.114;2023-03-16T05:22:52;4.47;;;2.50;;
12535;SDS011;6334;48.696;2.114;2023-03-16T05:25:25;3.40;;;2.40;;
12535;SDS011;6334;48.696;2.114;2023-03-16T05:27:56;3.80;;;2.27;;
12535;SDS011;6334;48.696;2.114;2023-03-16T05:30:26;2.97;;;2.67;;
12535;SDS011;6334;48.696;2.114;2023-03-16T05:32:57;4.27;;;2.80;;
12535;SDS011;6334;48.696;2.114;2023-03-16T05:35:27;4.27;;;2.20;;
12535;SDS011;6334;48.696;2.114;2023-03-16T05:37:57;2.57;;;2.07;;
12535;SDS011;6334;48.696;2.114;2023-03-16T05:40:28;5.47;;;2.40;;
12535;SDS011;6334;48.696;2.114;2023-03-16T05:42:58;4.60;;;2.57;;
12535;SDS011;6334;48.696;2.114;2023-03-16T05:45:29;3.70;;;2.40;;
12535;SDS011;6334;48.696;2.114;2023-03-16T05:47:59;2.83;;;2.33;;
12535;SDS011;6334;48.696;2.114;2023-03-16T05:50:30;5.10;;;2.67;;
12535;SDS011;6334;48.696;2.114;2023-03-16T05:53:00;3.37;;;2.10;;
12535;SDS011;6334;48.696;2.114;2023-03-16T05:55:31;2.17;;;1.97;;
12535;SDS011;6334;48.696;2.114;2023-03-16T05:58:01;4.87;;;2.80;;
12535;SDS011;6334;48.696;2.114;2023-03-16T06:00:32;4.47;;;2.10;;
12535;SDS011;6334;48.696;2.114;2023-03-16T06:03:02;2.60;;;2.40;;
12535;SDS011;6334;48.696;2.114;2023-03-16T06:05:32;3.33;;;2.07;;
12535;SDS011;6334;48.696;2.114;2023-03-16T06:08:03;3.50;;;2.10;;
12535;SDS011;6334;48.696;2.114;2023-03-16T06:10:34;2.90;;;2.03;;
12535;SDS011;6334;48.696;2.114;2023-03-16T06:13:04;4.97;;;2.37;;
12535;SDS011;6334;48.696;2.114;2023-03-16T06:15:34;3.27;;;2.13;;
12535;SDS011;6334;48.696;2.114;2023-03-16T06:18:05;3.17;;;2.27;;
12535;SDS011;6334;48.696;2.114;2023-03-16T06:20:35;4.40;;;2.03;;
12535;SDS011;6334;48.696;2.114;2023-03-16T06:23:06;2.33;;;1.77;;
12535;SDS011;6334;48.696;2.114;2023-03-16T06:25:36;3.07;;;2.13;;
12535;SDS011;6334;48.696;2.114;2023-03-16T06:28:08;3.37;;;1.93;;
12535;SDS011;6334;48.696;2.114;2023-03-16T06:30:38;4.57;;;2.50;;
12535;SDS011;6334;48.696;2.114;2023-03-16T06:33:09;6.30;;;2.20;;
12535;SDS011;6334;48.696;2.114;2023-03-16T06:35:39;4.10;;;2.17;;
12535;SDS011;6334;48.696;2.114;2023-03-16T06:38:10;3.13;;;1.97;;
12535;SDS011;6334;48.696;2.114;2023-03-16T06:40:40;2.40;;;1.60;;
12535;SDS011;6334;48.696;2.114;2023-03-16T06:43:10;2.87;;;1.70;;
12535;SDS011;6334;48.696;2.114;2023-03-16T06:45:41;3.90;;;1.90;;
12535;SDS011;6334;48.696;2.114;2023-03-16T06:48:11;2.73;;;1.93;;
12535;SDS011;6334;48.696;2.114;2023-03-16T06:50:43;3.47;;;2.27;;
12535;SDS011;6334;48.696;2.114;2023-03-16T06:53:12;2.07;;;1.67;;
12535;SDS011;6334;48.696;2.114;2023-03-16T06:55:43;2.60;;;1.70;;
12535;SDS011;6334;48.696;2.114;2023-03-16T06:58:13;4.23;;;2.17;;
12535;SDS011;6334;48.696;2.114;2023-03-16T07:00:44;2.73;;;1.83;;
12535;SDS011;6334;48.696;2.114;2023-03-16T07:03:14;5.13;;;2.10;;
12535;SDS011;6334;48.696;2.114;2023-03-16T07:05:46;2.30;;;2.10;;
12535;SDS011;6334;48.696;2.114;2023-03-16T07:08:15;3.27;;;2.30;;
12535;SDS011;6334;48.696;2.114;2023-03-16T07:10:45;3.07;;;2.30;;
12535;SDS011;6334;48.696;2.114;2023-03-16T07:13:16;4.87;;;2.00;;
12535;SDS011;6334;48.696;2.114;2023-03-16T07:15:49;6.00;;;2.30;;
12535;SDS011;6334;48.696;2.114;2023-03-16T07:18:18;1.80;;;1.70;;
12535;SDS011;6334;48.696;2.114;2023-03-16T07:20:49;2.77;;;2.10;;
12535;SDS011;6334;48.696;2.114;2023-03-16T07:23:19;4.97;;;2.20;;
12535;SDS011;6334;48.696;2.114;2023-03-16T07:25:50;3.80;;;2.13;;
12535;SDS011;6334;48.696;2.114;2023-03-16T07:28:20;3.03;;;2.10;;
12535;SDS011;6334;48.696;2.114;2023-03-16T07:30:50;4.87;;;2.40;;
12535;SDS011;6334;48.696;2.114;2023-03-16T07:33:21;3.30;;;2.33;;
12535;SDS011;6334;48.696;2.114;2023-03-16T07:35:51;4.07;;;2.13;;
12535;SDS011;6334;48.696;2.114;2023-03-16T07:38:22;4.27;;;2.00;;
12535;SDS011;6334;48.696;2.114;2023-03-16T07:40:52;4.10;;;1.97;;
12535;SDS011;6334;48.696;2.114;2023-03-16T07:43:23;2.07;;;1.73;;
12535;SDS011;6334;48.696;2.114;2023-03-16T07:45:53;4.57;;;2.30;;
12535;SDS011;6334;48.696;2.114;2023-03-16T07:48:24;3.70;;;2.30;;
12535;SDS011;6334;48.696;2.114;2023-03-16T07:50:54;3.57;;;2.23;;
12535;SDS011;6334;48.696;2.114;2023-03-16T07:53:25;1.87;;;1.67;;
12535;SDS011;6334;48.696;2.114;2023-03-16T07:55:55;2.43;;;1.80;;
12535;SDS011;6334;48.696;2.114;2023-03-16T07:58:26;2.33;;;1.63;;
12535;SDS011;6334;48.696;2.114;2023-03-16T08:00:59;3.10;;;2.00;;
12535;SDS011;6334;48.696;2.114;2023-03-16T08:03:27;3.60;;;1.87;;
12535;SDS011;6334;48.696;2.114;2023-03-16T08:05:57;1.93;;;1.73;;
12535;SDS011;6334;48.696;2.114;2023-03-16T08:08:28;4.27;;;2.07;;
12535;SDS011;6334;48.696;2.114;2023-03-16T08:10:58;2.90;;;2.00;;
12535;SDS011;6334;48.696;2.114;2023-03-16T08:13:30;4.97;;;2.33;;
12535;SDS011;6334;48.696;2.114;2023-03-16T08:16:00;4.17;;;2.10;;
12535;SDS011;6334;48.696;2.114;2023-03-16T08:18:31;2.63;;;1.80;;
12535;SDS011;6334;48.696;2.114;2023-03-16T08:21:01;3.50;;;2.10;;
12535;SDS011;6334;48.696;2.114;2023-03-16T08:23:32;2.80;;;2.17;;
12535;SDS011;6334;48.696;2.114;2023-03-16T08:26:02;4.20;;;2.40;;
12535;SDS011;6334;48.696;2.114;2023-03-16T08:28:35;6.33;;;1.97;;
12535;SDS011;6334;48.696;2.114;2023-03-16T08:31:07;5.13;;;2.23;;
12535;SDS011;6334;48.696;2.114;2023-03-16T08:33:38;4.83;;;1.80;;
12535;SDS011;6334;48.696;2.114;2023-03-16T08:36:09;3.47;;;1.93;;
12535;SDS011;6334;48.696;2.114;2023-03-16T08:38:38;5.60;;;1.87;;
12535;SDS011;6334;48.696;2.114;2023-03-16T08:41:09;3.17;;;1.77;;
12535;SDS011;6334;48.696;2.114;2023-03-16T08:43:39;5.70;;;2.37;;
12535;SDS011;6334;48.696;2.114;2023-03-16T08:46:10;3.67;;;2.20;;
12535;SDS011;6334;48.696;2.114;2023-03-16T08:48:40;3.30;;;1.73;;
12535;SDS011;6334;48.696;2.114;2023-03-16T08:51:11;2.43;;;1.73;;
12535;SDS011;6334;48.696;2.114;2023-03-16T08:53:41;3.27;;;1.83;;
12535;SDS011;6334;48.696;2.114;2023-03-16T08:56:12;5.90;;;2.30;;
12535;SDS011;6334;48.696;2.114;2023-03-16T08:58:42;4.43;;;2.67;;
12535;SDS011;6334;48.696;2.114;2023-03-16T09:01:14;4.70;;;2.53;;
12535;SDS011;6334;48.696;2.114;2023-03-16T09:03:43;2.30;;;2.10;;
12535;SDS011;6334;48.696;2.114;2023-03-16T09:06:14;2.60;;;1.50;;
12535;SDS011;6334;48.696;2.114;2023-03-16T09:08:44;2.83;;;1.80;;
12535;SDS011;6334;48.696;2.114;2023-03-16T09:11:16;3.03;;;2.10;;
12535;SDS011;6334;48.696;2.114;2023-03-16T09:13:45;6.40;;;2.60;;
12535;SDS011;6334;48.696;2.114;2023-03-16T09:16:15;3.17;;;2.00;;
12535;SDS011;6334;48.696;2.114;2023-03-16T09:18:46;2.57;;;1.77;;
12535;SDS011;6334;48.696;2.114;2023-03-16T09:21:16;2.33;;;2.10;;
12535;SDS011;6334;48.696;2.114;2023-03-16T09:23:47;3.43;;;2.10;;
12535;SDS011;6334;48.696;2.114;2023-03-16T09:26:17;3.77;;;2.27;;
12535;SDS011;6334;48.696;2.114;2023-03-16T09:28:48;3.27;;;1.73;;
12535;SDS011;6334;48.696;2.114;2023-03-16T09:31:19;4.07;;;2.20;;
12535;SDS011;6334;48.696;2.114;2023-03-16T09:33:48;2.37;;;1.60;;
12535;SDS011;6334;48.696;2.114;2023-03-16T09:36:19;2.13;;;1.80;;
12535;SDS011;6334;48.696;2.114;2023-03-16T09:38:51;2.13;;;1.97;;
12535;SDS011;6334;48.696;2.114;2023-03-16T09:44:33;5.23;;;3.20;;
12535;SDS011;6334;48.696;2.114;2023-03-16T09:47:00;4.40;;;3.03;;
12535;SDS011;6334;48.696;2.114;2023-03-16T09:49:32;4.50;;;2.83;;
12535;SDS011;6334;48.696;2.114;2023-03-16T09:55:22;8.30;;;3.30;;
12535;SDS011;6334;48.696;2.114;2023-03-16T09:57:24;4.43;;;3.00;;
12535;SDS011;6334;48.696;2.114;2023-03-16T09:59:54;6.73;;;3.00;;
12535;SDS011;6334;48.696;2.114;2023-03-16T10:05:09;5.47;;;2.93;;
12535;SDS011;6334;48.696;2.114;2023-03-16T10:14:00;2.90;;;2.00;;
12535;SDS011;6334;48.696;2.114;2023-03-16T10:16:34;4.20;;;2.57;;
12535;SDS011;6334;48.696;2.114;2023-03-16T10:19:12;3.23;;;2.47;;
12535;SDS011;6334;48.696;2.114;2023-03-16T10:21:44;5.97;;;2.60;;
12535;SDS011;6334;48.696;2.114;2023-03-16T10:27:04;4.13;;;3.00;;
12535;SDS011;6334;48.696;2.114;2023-03-16T10:29:35;5.10;;;2.40;;
12535;SDS011;6334;48.696;2.114;2023-03-16T10:32:13;4.77;;;2.90;;
12535;SDS011;6334;48.696;2.114;2023-03-16T10:34:42;6.70;;;2.77;;
12535;SDS011;6334;48.696;2.114;2023-03-16T10:37:12;5.57;;;2.70;;
12535;SDS011;6334;48.696;2.114;2023-03-16T10:39:43;6.50;;;3.43;;
12535;SDS011;6334;48.696;2.114;2023-03-16T10:42:17;6.63;;;3.47;;
12535;SDS011;6334;48.696;2.114;2023-03-16T10:44:46;6.60;;;3.50;;
12535;SDS011;6334;48.696;2.114;2023-03-16T10:47:18;4.67;;;3.07;;
12535;SDS011;6334;48.696;2.114;2023-03-16T10:49:48;6.90;;;3.30;;
12535;SDS011;6334;48.696;2.114;2023-03-16T10:52:39;4.93;;;2.60;;
12535;SDS011;6334;48.696;2.114;2023-03-16T10:55:09;3.67;;;3.03;;
12535;SDS011;6334;48.696;2.114;2023-03-16T10:57:48;4.50;;;2.67;;
12535;SDS011;6334;48.696;2.114;2023-03-16T11:00:35;5.47;;;3.00;;
12535;SDS011;6334;48.696;2.114;2023-03-16T11:03:17;6.23;;;2.90;;
12535;SDS011;6334;48.696;2.114;2023-03-16T11:05:42;4.13;;;2.63;;
12535;SDS011;6334;48.696;2.114;2023-03-16T11:08:14;4.30;;;2.37;;
12535;SDS011;6334;48.696;2.114;2023-03-16T11:10:46;3.83;;;2.70;;
12535;SDS011;6334;48.696;2.114;2023-03-16T11:13:19;4.03;;;2.63;;
12535;SDS011;6334;48.696;2.114;2023-03-16T11:15:56;4.20;;;2.63;;
12535;SDS011;6334;48.696;2.114;2023-03-16T11:21:14;5.73;;;2.80;;
12535;SDS011;6334;48.696;2.114;2023-03-16T11:23:36;4.33;;;2.80;;
12535;SDS011;6334;48.696;2.114;2023-03-16T11:26:06;5.20;;;2.53;;
12535;SDS011;6334;48.696;2.114;2023-03-16T11:28:37;4.97;;;2.70;;
12535;SDS011;6334;48.696;2.114;2023-03-16T11:33:56;4.97;;;2.67;;
12535;SDS011;6334;48.696;2.114;2023-03-16T11:39:29;3.97;;;2.23;;
12535;SDS011;6334;48.696;2.114;2023-03-16T11:50:13;5.03;;;2.60;;
12535;SDS011;6334;48.696;2.114;2023-03-16T11:52:45;3.63;;;2.50;;
12535;SDS011;6334;48.696;2.114;2023-03-16T11:55:24;6.07;;;2.20;;
12535;SDS011;6334;48.696;2.114;2023-03-16T12:06:22;3.57;;;2.10;;
12535;SDS011;6334;48.696;2.114;2023-03-16T12:11:55;2.53;;;1.87;;
12535;SDS011;6334;48.696;2.114;2023-03-16T12:14:22;2.67;;;2.47;;
12535;SDS011;6334;48.696;2.114;2023-03-16T12:16:53;3.90;;;2.43;;
12535;SDS011;6334;48.696;2.114;2023-03-16T12:22:26;3.37;;;2.30;;
12535;SDS011;6334;48.696;2.114;2023-03-16T12:24:58;3.43;;;2.10;;
12535;SDS011;6334;48.696;2.114;2023-03-16T12:27:30;4.90;;;2.47;;
12535;SDS011;6334;48.696;2.114;2023-03-16T12:30:02;2.23;;;2.03;;
12535;SDS011;6334;48.696;2.114;2023-03-16T12:35:23;3.77;;;2.20;;
12535;SDS011;6334;48.696;2.114;2023-03-16T12:38:10;6.03;;;2.40;;
12535;SDS011;6334;48.696;2.114;2023-03-16T12:40:43;4.63;;;2.63;;
12535;SDS011;6334;48.696;2.114;2023-03-16T12:46:30;2.57;;;2.37;;
12535;SDS011;6334;48.696;2.114;2023-03-16T12:49:05;4.43;;;2.30;;
12535;SDS011;6334;48.696;2.114;2023-03-16T12:51:37;3.70;;;2.67;;
12535;SDS011;6334;48.696;2.114;2023-03-16T12:54:22;5.20;;;3.33;;
12535;SDS011;6334;48.696;2.114;2023-03-16T12:56:51;4.80;;;2.47;;
12535;SDS011;6334;48.696;2.114;2023-03-16T12:59:22;4.83;;;3.00;;
12535;SDS011;6334;48.696;2.114;2023-03-16T13:01:55;4.87;;;2.90;;
12535;SDS011;6334;48.696;2.114;2023-03-16T13:04:37;3.73;;;2.70;;
12535;SDS011;6334;48.696;2.114;2023-03-16T13:07:05;3.77;;;2.67;;
12535;SDS011;6334;48.696;2.114;2023-03-16T13:09:34;3.07;;;2.43;;
12535;SDS011;6334;48.696;2.114;2023-03-16T13:12:04;5.43;;;2.50;;
12535;SDS011;6334;48.696;2.114;2023-03-16T13:14:39;6.30;;;3.00;;
12535;SDS011;6334;48.696;2.114;2023-03-16T13:17:21;3.50;;;2.50;;
12535;SDS011;6334;48.696;2.114;2023-03-16T13:20:32;3.50;;;3.20;;
12535;SDS011;6334;48.696;2.114;2023-03-16T13:22:39;4.47;;;2.70;;
12535;SDS011;6334;48.696;2.114;2023-03-16T13:25:11;4.70;;;2.73;;
12535;SDS011;6334;48.696;2.114;2023-03-16T13:27:41;5.97;;;3.27;;
12535;SDS011;6334;48.696;2.114;2023-03-16T13:30:29;5.60;;;2.77;;
12535;SDS011;6334;48.696;2.114;2023-03-16T13:33:20;3.30;;;2.50;;
12535;SDS011;6334;48.696;2.114;2023-03-16T13:35:28;3.40;;;2.90;;
12535;SDS011;6334;48.696;2.114;2023-03-16T13:38:02;4.30;;;2.80;;
12535;SDS011;6334;48.696;2.114;2023-03-16T13:40:32;3.63;;;3.17;;
12535;SDS011;6334;48.696;2.114;2023-03-16T13:43:02;4.53;;;3.40;;
12535;SDS011;6334;48.696;2.114;2023-03-16T13:45:35;3.77;;;3.23;;
12535;SDS011;6334;48.696;2.114;2023-03-16T13:48:03;4.93;;;2.87;;
12535;SDS011;6334;48.696;2.114;2023-03-16T13:50:34;5.60;;;3.37;;
12535;SDS011;6334;48.696;2.114;2023-03-16T13:53:09;5.23;;;3.50;;
12535;SDS011;6334;48.696;2.114;2023-03-16T13:55:35;3.80;;;3.30;;
12535;SDS011;6334;48.696;2.114;2023-03-16T13:58:12;7.80;;;4.17;;
12535;SDS011;6334;48.696;2.114;2023-03-16T14:00:36;7.33;;;4.33;;
12535;SDS011;6334;48.696;2.114;2023-03-16T14:03:13;5.17;;;3.73;;
12535;SDS011;6334;48.696;2.114;2023-03-16T14:05:45;6.03;;;3.87;;
12535;SDS011;6334;48.696;2.114;2023-03-16T14:08:17;5.83;;;3.83;;
12535;SDS011;6334;48.696;2.114;2023-03-16T14:10:46;4.37;;;3.50;;
12535;SDS011;6334;48.696;2.114;2023-03-16T14:13:24;6.57;;;3.47;;
12535;SDS011;6334;48.696;2.114;2023-03-16T14:15:58;6.40;;;3.83;;
12535;SDS011;6334;48.696;2.114;2023-03-16T14:18:34;5.90;;;4.23;;
12535;SDS011;6334;48.696;2.114;2023-03-16T14:21:07;5.70;;;3.90;;
12535;SDS011;6334;48.696;2.114;2023-03-16T14:23:40;6.27;;;4.33;;
12535;SDS011;6334;48.696;2.114;2023-03-16T14:26:12;5.90;;;4.43;;
12535;SDS011;6334;48.696;2.114;2023-03-16T14:28:52;7.37;;;4.60;;
12535;SDS011;6334;48.696;2.114;2023-03-16T14:31:12;6.47;;;4.67;;
12535;SDS011;6334;48.696;2.114;2023-03-16T14:33:42;6.03;;;4.40;;
12535;SDS011;6334;48.696;2.114;2023-03-16T14:36:13;7.53;;;4.63;;
12535;SDS011;6334;48.696;2.114;2023-03-16T14:38:47;9.47;;;4.67;;
12535;SDS011;6334;48.696;2.114;2023-03-16T14:41:26;8.40;;;4.77;;
12535;SDS011;6334;48.696;2.114;2023-03-16T14:43:55;6.87;;;4.67;;
12535;SDS011;6334;48.696;2.114;2023-03-16T14:46:36;7.47;;;4.77;;
12535;SDS011;6334;48.696;2.114;2023-03-16T14:49:07;6.00;;;4.33;;
12535;SDS011;6334;48.696;2.114;2023-03-16T14:51:37;6.73;;;4.73;;
12535;SDS011;6334;48.696;2.114;2023-03-16T14:54:15;7.33;;;4.67;;
12535;SDS011;6334;48.696;2.114;2023-03-16T14:56:53;7.70;;;4.97;;
12535;SDS011;6334;48.696;2.114;2023-03-16T14:59:16;8.57;;;5.00;;
12535;SDS011;6334;48.696;2.114;2023-03-16T15:01:48;7.33;;;4.87;;
12535;SDS011;6334;48.696;2.114;2023-03-16T15:04:23;5.53;;;4.47;;
12535;SDS011;6334;48.696;2.114;2023-03-16T15:06:50;7.23;;;4.93;;
12535;SDS011;6334;48.696;2.114;2023-03-16T15:09:26;6.63;;;4.50;;
12535;SDS011;6334;48.696;2.114;2023-03-16T15:12:00;4.50;;;4.00;;
12535;SDS011;6334;48.696;2.114;2023-03-16T15:14:32;5.63;;;4.33;;
12535;SDS011;6334;48.696;2.114;2023-03-16T15:17:20;6.60;;;4.20;;
12535;SDS011;6334;48.696;2.114;2023-03-16T15:19:50;5.80;;;4.27;;
12535;SDS011;6334;48.696;2.114;2023-03-16T15:22:23;5.90;;;4.07;;
12535;SDS011;6334;48.696;2.114;2023-03-16T15:24:51;5.30;;;3.70;;
12535;SDS011;6334;48.696;2.114;2023-03-16T15:27:22;7.97;;;3.70;;
12535;SDS011;6334;48.696;2.114;2023-03-16T15:29:52;5.50;;;3.93;;
12535;SDS011;6334;48.696;2.114;2023-03-16T15:32:23;4.67;;;3.97;;
12535;SDS011;6334;48.696;2.114;2023-03-16T15:34:53;6.33;;;3.70;;
12535;SDS011;6334;48.696;2.114;2023-03-16T15:37:24;6.40;;;3.90;;
12535;SDS011;6334;48.696;2.114;2023-03-16T15:39:54;5.40;;;3.90;;
12535;SDS011;6334;48.696;2.114;2023-03-16T15:42:25;5.70;;;3.73;;
12535;SDS011;6334;48.696;2.114;2023-03-16T15:44:55;3.80;;;3.23;;
12535;SDS011;6334;48.696;2.114;2023-03-16T15:47:25;4.07;;;3.57;;
12535;SDS011;6334;48.696;2.114;2023-03-16T15:49:56;4.80;;;3.60;;
12535;SDS011;6334;48.696;2.114;2023-03-16T15:52:29;4.13;;;3.47;;
12535;SDS011;6334;48.696;2.114;2023-03-16T15:54:59;3.77;;;3.27;;
12535;SDS011;6334;48.696;2.114;2023-03-16T15:57:30;3.73;;;3.43;;
12535;SDS011;6334;48.696;2.114;2023-03-16T16:00:00;4.73;;;3.60;;
12535;SDS011;6334;48.696;2.114;2023-03-16T16:02:31;4.53;;;3.80;;
12535;SDS011;6334;48.696;2.114;2023-03-16T16:05:01;4.47;;;3.73;;
12535;SDS011;6334;48.696;2.114;2023-03-16T16:07:32;3.20;;;2.90;;
12535;SDS011;6334;48.696;2.114;2023-03-16T16:10:02;3.60;;;3.30;;
12535;SDS011;6334;48.696;2.114;2023-03-16T16:12:33;3.70;;;3.20;;
12535;SDS011;6334;48.696;2.114;2023-03-16T16:15:08;2.83;;;2.50;;
12535;SDS011;6334;48.696;2.114;2023-03-16T16:17:35;3.90;;;3.20;;
12535;SDS011;6334;48.696;2.114;2023-03-16T16:20:15;3.77;;;3.10;;
12535;SDS011;6334;48.696;2.114;2023-03-16T16:22:44;3.63;;;2.97;;